Cookstown, New Jersey
Current Conditions -  °F | °C
As of 8:58 AM on Tuesday 27 Jan 2015 (Local Time) from KWRI Reporting Station
Light Snow Light Snow  
Wind Chill: 13°   Ceiling: 1400
Heat Index: 25°   Visibility: 2.5mi
Dew Point: 22°   Wind: 13mph
Humidity: 88%   Direction: 320°NW
Pressure: 29.7"   Gusts: NA
Location:  40.05°N, 74.56°W
Report Text: KWRI 271358Z AUTO 32011KT 2 1/2SM -SN BR OVC014 M04/M06 A2970 RMK AO2 SLP062 P0000 T10411058 $
Loading
Personal Weather Stations






























Interactive Weather Map New forecast layout! Learn more

10-Day Weather Forecast

Advertisements
Track Severe Weather on mobile